createdAt,value
2023-04-10T00:00:57.149Z,51.40
2023-04-10T00:03:25.526Z,51.34
2023-04-10T00:05:54.766Z,51.93
2023-04-10T00:08:24.194Z,51.49
2023-04-10T00:10:53.265Z,51.88
2023-04-10T00:13:21.429Z,51.58
2023-04-10T00:15:49.638Z,51.32
2023-04-10T00:18:17.366Z,51.88
2023-04-10T00:20:45.102Z,51.32
2023-04-10T00:23:12.880Z,51.54
2023-04-10T00:25:42.011Z,51.32
2023-04-10T00:28:09.739Z,51.26
2023-04-10T00:30:37.389Z,51.73
2023-04-10T00:33:05.833Z,51.63
2023-04-10T00:35:34.443Z,51.66
2023-04-10T00:38:02.165Z,51.46
2023-04-10T00:40:30.409Z,51.83
2023-04-10T00:42:59.570Z,51.74
2023-04-10T00:45:27.502Z,52.02
2023-04-10T00:47:55.770Z,51.99
2023-04-10T00:50:23.723Z,52.05
2023-04-10T00:52:51.800Z,51.85
2023-04-10T00:55:19.575Z,51.81
2023-04-10T00:57:47.746Z,51.89
2023-04-10T01:00:17.851Z,52.16
2023-04-10T01:02:45.872Z,51.76
2023-04-10T01:05:14.217Z,52.30
2023-04-10T01:07:59.062Z,52.50
2023-04-10T01:10:30.912Z,52.19
2023-04-10T01:13:05.729Z,52.55
2023-04-10T01:15:39.873Z,52.43
2023-04-10T01:18:13.997Z,52.75
2023-04-10T01:20:43.128Z,52.72
2023-04-10T01:23:44.159Z,52.57
2023-04-10T01:26:12.819Z,52.43
2023-04-10T01:28:50.602Z,52.43
2023-04-10T01:31:20.830Z,52.48
2023-04-10T01:33:52.193Z,52.62
2023-04-10T01:36:23.124Z,53.05
2023-04-10T01:38:52.134Z,53.07
2023-04-10T01:41:20.840Z,53.01
2023-04-10T01:43:52.047Z,52.73
2023-04-10T01:46:20.582Z,52.52
2023-04-10T01:48:48.609Z,53.33
2023-04-10T01:51:16.592Z,52.98
2023-04-10T01:53:45.384Z,53.16
2023-04-10T01:56:13.934Z,53.17
2023-04-10T01:58:41.852Z,53.32
2023-04-10T02:01:19.353Z,53.09
2023-04-10T02:03:54.428Z,53.40
2023-04-10T02:06:27.735Z,52.93
2023-04-10T02:08:58.550Z,53.32
2023-04-10T02:11:33.144Z,53.09
2023-04-10T02:14:03.309Z,53.43
2023-04-10T02:16:33.151Z,53.41
2023-04-10T02:19:02.047Z,53.17
2023-04-10T02:21:29.974Z,53.83
2023-04-10T02:23:58.558Z,53.64
2023-04-10T02:26:26.268Z,53.61
2023-04-10T02:28:54.025Z,53.67
2023-04-10T02:31:21.775Z,53.80
2023-04-10T02:33:51.055Z,53.54
2023-04-10T02:36:18.829Z,53.64
2023-04-10T02:38:46.552Z,53.98
2023-04-10T02:41:14.285Z,53.98
2023-04-10T02:43:41.965Z,53.98
2023-04-10T02:46:09.604Z,53.80
2023-04-10T02:48:37.299Z,54.06
2023-04-10T02:51:07.550Z,54.13
2023-04-10T02:53:35.454Z,53.95
2023-04-10T02:56:03.580Z,54.22
2023-04-10T02:58:31.644Z,53.90
2023-04-10T03:00:59.616Z,54.29
2023-04-10T03:05:55.055Z,54.53
2023-04-10T03:08:24.181Z,54.27
2023-04-10T03:10:51.866Z,54.08
2023-04-10T03:13:19.490Z,54.42
2023-04-10T03:15:47.796Z,54.41
2023-04-10T03:18:15.601Z,54.69
2023-04-10T03:20:45.118Z,54.65
2023-04-10T03:23:13.120Z,54.94
2023-04-10T03:25:42.368Z,54.43
2023-04-10T03:28:10.346Z,54.78
2023-04-10T03:30:38.093Z,55.01
2023-04-10T03:33:05.886Z,54.63
2023-04-10T03:35:33.590Z,54.74
2023-04-10T03:38:01.321Z,54.97
2023-04-10T03:40:29.038Z,54.54
2023-04-10T03:42:58.252Z,54.90
2023-04-10T03:45:25.926Z,55.06
2023-04-10T03:47:53.784Z,55.28
2023-04-10T03:50:21.702Z,55.03
2023-04-10T03:52:49.696Z,55.24
2023-04-10T03:55:19.011Z,55.25
2023-04-10T03:57:46.925Z,54.88
2023-04-10T04:00:16.982Z,55.01
2023-04-10T04:02:44.921Z,54.96
2023-04-10T04:05:13.052Z,55.37
2023-04-10T04:07:40.769Z,54.99
2023-04-10T04:10:09.327Z,55.42
2023-04-10T04:12:37.067Z,55.27
2023-04-10T04:15:05.425Z,55.20
2023-04-10T04:17:34.580Z,55.71
2023-04-10T04:20:02.299Z,55.78
2023-04-10T04:22:29.936Z,55.41
2023-04-10T04:24:57.620Z,55.71
2023-04-10T04:27:25.364Z,56.18
2023-04-10T04:29:53.006Z,55.94
2023-04-10T04:32:20.849Z,55.87
2023-04-10T04:34:49.890Z,55.92
2023-04-10T04:37:17.558Z,55.91
2023-04-10T04:39:45.338Z,55.63
2023-04-10T04:42:13.036Z,55.87
2023-04-10T04:44:40.706Z,56.12
2023-04-10T04:47:08.375Z,56.32
2023-04-10T04:49:36.010Z,56.09
2023-04-10T04:52:05.631Z,55.70
2023-04-10T04:54:33.311Z,56.00
2023-04-10T04:57:01.629Z,56.12
2023-04-10T04:59:29.365Z,56.19
2023-04-10T05:01:57.182Z,56.05
2023-04-10T05:04:25.147Z,56.31
2023-04-10T05:06:52.893Z,56.31
2023-04-10T05:09:21.967Z,56.44
2023-04-10T05:11:50.523Z,56.57
2023-04-10T05:14:18.280Z,56.36
2023-04-10T05:16:45.989Z,56.58
2023-04-10T05:19:13.648Z,56.71
2023-04-10T05:21:41.313Z,56.57
2023-04-10T05:24:09.401Z,56.52
2023-04-10T05:26:38.454Z,56.63
2023-04-10T05:29:06.174Z,57.06
2023-04-10T05:31:34.039Z,56.45
2023-04-10T05:34:01.869Z,56.71
2023-04-10T05:36:29.557Z,57.15
2023-04-10T05:38:57.207Z,56.93
2023-04-10T05:41:24.951Z,56.85
2023-04-10T05:43:54.019Z,57.18
2023-04-10T05:46:22.414Z,56.81
2023-04-10T05:48:50.098Z,56.86
2023-04-10T05:51:17.812Z,56.84
2023-04-10T05:53:45.697Z,57.16
2023-04-10T05:56:13.340Z,56.66
2023-04-10T05:58:41.047Z,57.30
2023-04-10T06:01:11.399Z,56.86
2023-04-10T06:03:39.118Z,56.57
2023-04-10T06:06:08.797Z,57.07
2023-04-10T06:08:36.542Z,57.34
2023-04-10T06:11:04.605Z,56.52
2023-04-10T06:13:32.476Z,56.83
2023-04-10T06:16:00.982Z,56.68
2023-04-10T06:18:30.324Z,56.51
2023-04-10T06:21:01.693Z,57.04
2023-04-10T06:23:29.562Z,56.82
2023-04-10T06:25:57.640Z,56.23
2023-04-10T06:28:25.398Z,56.63
2023-04-10T06:30:53.133Z,56.66
2023-04-10T06:33:20.956Z,56.74
2023-04-10T06:35:50.823Z,56.30
2023-04-10T06:38:18.606Z,55.81
2023-04-10T06:40:46.326Z,55.62
2023-04-10T06:43:14.154Z,55.78
2023-04-10T06:45:41.783Z,55.04
2023-04-10T06:48:09.466Z,55.87
2023-04-10T06:50:37.177Z,55.62
2023-04-10T06:53:06.267Z,55.39
2023-04-10T06:55:34.027Z,55.02
2023-04-10T07:00:29.731Z,54.49
2023-04-10T07:02:57.613Z,54.66
2023-04-10T07:05:25.410Z,54.81
2023-04-10T07:07:53.321Z,54.77
2023-04-10T07:10:22.444Z,54.62
2023-04-10T07:12:50.330Z,53.72
2023-04-10T07:15:18.133Z,53.95
2023-04-10T07:17:46.009Z,52.48
2023-04-10T07:20:13.942Z,53.45
2023-04-10T07:22:41.627Z,53.28
2023-04-10T07:25:10.412Z,52.60
2023-04-10T07:27:39.430Z,53.14
2023-04-10T07:30:08.329Z,53.10
2023-04-10T07:32:37.673Z,52.51
2023-04-10T07:35:06.212Z,53.54
2023-04-10T07:37:33.961Z,52.71
2023-04-10T07:40:02.461Z,52.00
2023-04-10T07:42:31.574Z,51.66
2023-04-10T07:45:00.615Z,51.29
2023-04-10T07:47:28.362Z,51.09
2023-04-10T07:49:56.672Z,51.14
2023-04-10T07:52:24.465Z,50.56
2023-04-10T07:54:52.222Z,50.51
2023-04-10T07:57:19.924Z,49.96
2023-04-10T07:59:47.586Z,50.60
2023-04-10T08:02:16.843Z,50.11
2023-04-10T08:04:44.746Z,49.92
2023-04-10T08:07:12.627Z,49.91
2023-04-10T08:09:40.328Z,50.29
2023-04-10T08:12:07.983Z,48.96
2023-04-10T08:14:35.794Z,49.26
2023-04-10T08:17:03.527Z,48.95
2023-04-10T08:19:32.665Z,48.84
2023-04-10T08:22:00.297Z,49.28
2023-04-10T08:24:27.926Z,48.18
2023-04-10T08:26:55.543Z,48.18
2023-04-10T08:31:51.886Z,48.42
2023-04-10T08:34:20.382Z,48.17
2023-04-10T08:36:49.643Z,47.55
2023-04-10T08:39:17.330Z,47.73
2023-04-10T08:41:45.024Z,47.04
2023-04-10T08:44:13.106Z,47.00
2023-04-10T08:46:43.925Z,46.92
2023-04-10T08:49:12.706Z,47.42
2023-04-10T08:51:42.908Z,47.51
2023-04-10T08:54:14.983Z,47.75
2023-04-10T08:56:44.019Z,47.70
2023-04-10T08:59:11.850Z,47.65
2023-04-10T09:01:41.180Z,48.34
2023-04-10T09:04:09.054Z,47.28
2023-04-10T09:06:36.760Z,48.15
2023-04-10T09:09:04.691Z,47.04
2023-04-10T09:12:01.394Z,46.37
2023-04-10T09:14:30.540Z,46.59
2023-04-10T09:17:13.217Z,45.60
2023-04-10T09:19:41.088Z,46.32
2023-04-10T09:22:09.017Z,46.13
2023-04-10T09:24:38.215Z,45.94
2023-04-10T09:27:07.681Z,46.32
2023-04-10T09:29:44.571Z,45.99
2023-04-10T09:32:12.782Z,45.56
2023-04-10T09:35:05.837Z,44.78
2023-04-10T09:37:33.762Z,45.35
2023-04-10T09:40:01.854Z,45.23
2023-04-10T09:42:36.416Z,45.37
2023-04-10T09:45:04.980Z,44.86
2023-04-10T09:47:33.487Z,44.21
2023-04-10T09:50:01.954Z,44.58
2023-04-10T09:52:30.713Z,44.70
2023-04-10T09:55:00.307Z,43.95
2023-04-10T09:57:29.560Z,44.64
2023-04-10T10:00:02.212Z,44.72
2023-04-10T10:02:31.395Z,43.69
2023-04-10T10:05:01.490Z,43.89
2023-04-10T10:07:30.860Z,43.09
2023-04-10T10:09:59.245Z,43.56
2023-04-10T10:12:30.990Z,43.59
2023-04-10T10:15:03.204Z,43.29
2023-04-10T10:17:39.466Z,42.97
2023-04-10T10:20:09.935Z,43.22
2023-04-10T10:22:38.030Z,43.14
2023-04-10T10:25:06.345Z,43.08
2023-04-10T10:27:38.336Z,43.03
2023-04-10T10:30:25.214Z,43.17
2023-04-10T10:32:57.494Z,42.76
2023-04-10T10:35:27.965Z,42.56
2023-04-10T10:37:57.669Z,43.13
2023-04-10T10:40:29.098Z,42.82
2023-04-10T10:43:02.702Z,43.33
2023-04-10T10:45:37.619Z,44.09
2023-04-10T10:48:06.887Z,44.13
2023-04-10T10:50:53.120Z,43.38
2023-04-10T10:53:33.829Z,42.98
2023-04-10T10:56:34.424Z,42.29
2023-04-10T10:59:02.741Z,42.75
2023-04-10T11:01:31.961Z,42.57
2023-04-10T11:04:01.265Z,42.76
2023-04-10T11:06:54.640Z,43.27
2023-04-10T11:09:45.890Z,42.88
2023-04-10T11:12:13.660Z,43.35
2023-04-10T11:14:42.132Z,43.47
2023-04-10T11:17:11.621Z,43.40
2023-04-10T11:19:59.217Z,44.21
2023-04-10T11:22:27.792Z,43.62
2023-04-10T11:24:57.663Z,43.14
2023-04-10T11:27:52.910Z,43.15
2023-04-10T11:30:28.084Z,42.90
2023-04-10T11:32:57.589Z,43.24
2023-04-10T11:35:26.858Z,43.37
2023-04-10T11:38:09.674Z,43.31
2023-04-10T11:40:37.381Z,43.36
2023-04-10T11:43:15.079Z,43.45
2023-04-10T11:45:42.760Z,43.21
2023-04-10T11:48:11.872Z,43.92
2023-04-10T11:50:39.552Z,43.38
2023-04-10T11:53:19.643Z,43.47
2023-04-10T11:55:47.770Z,42.85
2023-04-10T11:58:26.132Z,42.21
2023-04-10T12:00:58.650Z,42.59
2023-04-10T12:03:35.728Z,43.21
2023-04-10T12:06:06.406Z,42.66
2023-04-10T12:08:34.619Z,42.45
2023-04-10T12:11:02.416Z,41.73
2023-04-10T12:13:30.808Z,42.50
2023-04-10T12:16:04.717Z,42.23
2023-04-10T12:18:34.268Z,42.66
2023-04-10T12:21:02.269Z,42.58
2023-04-10T12:23:30.890Z,42.79
2023-04-10T12:26:13.624Z,42.06
2023-04-10T12:28:42.150Z,41.13
2023-04-10T12:31:10.457Z,42.06
2023-04-10T12:33:40.592Z,41.67
2023-04-10T12:36:21.237Z,41.07
2023-04-10T12:38:48.983Z,40.63
2023-04-10T12:41:23.453Z,41.34
2023-04-10T12:43:52.482Z,41.37
2023-04-10T12:46:29.132Z,40.66
2023-04-10T12:48:58.281Z,40.10
2023-04-10T12:51:46.768Z,40.42
2023-04-10T12:54:28.996Z,40.52
2023-04-10T12:56:57.717Z,41.01
2023-04-10T12:59:26.451Z,40.87
2023-04-10T13:01:54.447Z,40.61
2023-04-10T13:04:24.253Z,41.49
2023-04-10T13:06:53.175Z,40.65
2023-04-10T13:09:21.281Z,40.27
2023-04-10T13:11:51.029Z,40.15
2023-04-10T13:14:19.747Z,40.36
2023-04-10T13:16:47.530Z,40.54
2023-04-10T13:19:15.220Z,40.66
2023-04-10T13:21:44.367Z,40.39
2023-04-10T13:24:12.589Z,39.92
2023-04-10T13:26:40.869Z,40.94
2023-04-10T13:29:08.494Z,41.29
2023-04-10T13:31:36.247Z,41.18
2023-04-10T13:34:03.953Z,41.12
2023-04-10T13:36:32.607Z,40.77
2023-04-10T13:39:01.791Z,40.14
2023-04-10T13:41:29.372Z,40.70
2023-04-10T13:43:57.169Z,40.41
2023-04-10T13:46:25.550Z,40.81
2023-04-10T13:48:53.297Z,41.14
2023-04-10T13:51:20.957Z,40.40
2023-04-10T13:53:48.580Z,40.30
2023-04-10T13:56:17.624Z,40.33
2023-04-10T13:58:46.817Z,40.71
2023-04-10T14:01:14.576Z,40.96
2023-04-10T14:03:42.439Z,40.56
2023-04-10T14:06:10.333Z,40.00
2023-04-10T14:08:38.073Z,40.93
2023-04-10T14:11:06.034Z,40.95
2023-04-10T14:13:35.059Z,41.59
2023-04-10T14:16:04.074Z,40.46
2023-04-10T14:18:31.777Z,40.49
2023-04-10T14:20:59.432Z,40.81
2023-04-10T14:23:27.155Z,40.50
2023-04-10T14:25:54.908Z,40.68
2023-04-10T14:28:22.612Z,40.91
2023-04-10T14:30:52.600Z,41.18
2023-04-10T14:33:20.625Z,40.55
2023-04-10T14:35:48.866Z,41.61
2023-04-10T14:38:16.829Z,40.94
2023-04-10T14:40:45.776Z,40.72
2023-04-10T14:43:13.444Z,41.09
2023-04-10T14:45:41.111Z,41.70
2023-04-10T14:48:11.051Z,41.15
2023-04-10T14:50:38.900Z,40.96
2023-04-10T14:53:09.565Z,41.13
2023-04-10T14:55:37.828Z,41.14
2023-04-10T14:58:06.725Z,41.08
2023-04-10T15:00:34.604Z,41.07
2023-04-10T15:03:02.517Z,40.96
2023-04-10T15:05:31.618Z,41.10
2023-04-10T15:07:59.369Z,41.29
2023-04-10T15:10:27.112Z,40.93
2023-04-10T15:12:54.747Z,41.04
2023-04-10T15:15:22.533Z,40.34
2023-04-10T15:17:50.545Z,40.08
2023-04-10T15:20:18.368Z,41.09
2023-04-10T15:22:48.227Z,41.10
2023-04-10T15:25:16.168Z,40.67
2023-04-10T15:27:43.868Z,40.54
2023-04-10T15:30:12.643Z,41.21
2023-04-10T15:32:40.348Z,41.03
2023-04-10T15:35:09.347Z,41.63
2023-04-10T15:37:37.580Z,41.69
2023-04-10T15:40:07.761Z,40.76
2023-04-10T15:42:35.836Z,40.69
2023-04-10T15:45:03.779Z,40.29
2023-04-10T15:47:31.455Z,40.95
2023-04-10T15:49:59.252Z,40.65
2023-04-10T15:52:29.213Z,40.45
2023-04-10T15:54:56.904Z,40.58
2023-04-10T15:57:26.057Z,41.02
2023-04-10T15:59:53.838Z,40.96
2023-04-10T16:02:21.720Z,40.58
2023-04-10T16:04:49.795Z,41.31
2023-04-10T16:07:17.697Z,41.33
2023-04-10T16:09:46.182Z,41.21
2023-04-10T16:12:13.990Z,41.48
2023-04-10T16:14:43.054Z,42.99
2023-04-10T16:17:10.804Z,43.60
2023-04-10T16:19:38.513Z,45.11
2023-04-10T16:22:06.272Z,45.03
2023-04-10T16:24:33.908Z,45.77
2023-04-10T16:27:02.401Z,46.83
2023-04-10T16:29:30.116Z,46.62
2023-04-10T16:31:59.228Z,46.58
2023-04-10T16:34:26.943Z,45.81
2023-04-10T16:36:54.623Z,46.43
2023-04-10T16:39:22.371Z,47.78
2023-04-10T16:41:50.071Z,48.78
2023-04-10T16:44:17.732Z,50.42
2023-04-10T16:46:45.532Z,51.96
2023-04-10T16:49:14.792Z,54.15
2023-04-10T16:51:42.463Z,56.21
2023-04-10T16:54:10.108Z,57.56
2023-04-10T16:56:37.804Z,59.09
2023-04-10T16:59:05.538Z,59.55
2023-04-10T17:01:35.127Z,60.68
2023-04-10T17:04:02.920Z,62.68
2023-04-10T17:06:32.450Z,63.33
2023-04-10T17:09:00.300Z,64.30
2023-04-10T17:11:28.350Z,64.79
2023-04-10T17:13:56.090Z,66.98
2023-04-10T17:16:23.839Z,66.02
2023-04-10T17:18:51.596Z,65.80
2023-04-10T17:21:19.202Z,67.05
2023-04-10T17:23:48.819Z,68.08
2023-04-10T17:26:17.557Z,66.79
2023-04-10T17:28:46.496Z,67.18
2023-04-10T17:31:14.806Z,68.62
2023-04-10T17:33:42.900Z,68.60
2023-04-10T17:36:12.270Z,68.89
2023-04-10T17:38:41.027Z,68.57
2023-04-10T17:41:10.712Z,68.74
2023-04-10T17:43:38.383Z,68.54
2023-04-10T17:46:06.716Z,69.07
2023-04-10T17:48:34.633Z,68.81
2023-04-10T17:51:06.245Z,68.54
2023-04-10T17:53:33.971Z,68.13
2023-04-10T17:56:01.665Z,68.73
2023-04-10T17:58:30.836Z,68.50
2023-04-10T18:00:58.520Z,68.86
2023-04-10T18:03:26.367Z,68.80
2023-04-10T18:05:54.197Z,68.02
2023-04-10T18:08:21.871Z,69.25
2023-04-10T18:10:49.607Z,68.72
2023-04-10T18:13:17.264Z,68.87
2023-04-10T18:15:46.379Z,68.60
2023-04-10T18:18:14.310Z,68.08
2023-04-10T18:20:42.031Z,68.58
2023-04-10T18:23:09.746Z,68.90
2023-04-10T18:25:37.499Z,70.13
2023-04-10T18:28:14.502Z,70.66
2023-04-10T18:30:43.713Z,71.97
2023-04-10T18:33:14.080Z,72.72
2023-04-10T18:35:42.079Z,74.09
2023-04-10T18:38:09.815Z,75.35
2023-04-10T18:40:37.898Z,76.58
2023-04-10T18:43:05.637Z,77.40
2023-04-10T18:45:34.392Z,78.60
2023-04-10T18:48:02.410Z,78.92
2023-04-10T18:50:31.591Z,79.16
2023-04-10T18:52:59.259Z,79.95
2023-04-10T18:55:27.050Z,80.34
2023-04-10T18:57:54.767Z,80.14
2023-04-10T19:00:22.817Z,80.03
2023-04-10T19:02:50.767Z,80.53
2023-04-10T19:05:18.533Z,81.04
2023-04-10T19:08:00.556Z,80.54
2023-04-10T19:10:31.199Z,81.07
2023-04-10T19:12:58.869Z,80.83
2023-04-10T19:15:26.529Z,81.27
2023-04-10T19:17:54.700Z,81.35
2023-04-10T19:20:49.931Z,81.21
2023-04-10T19:23:12.950Z,81.73
2023-04-10T19:25:41.042Z,82.00
2023-04-10T19:28:08.777Z,82.02
2023-04-10T19:30:36.503Z,82.25
2023-04-10T19:33:04.213Z,82.13
2023-04-10T19:35:32.025Z,82.79
2023-04-10T19:37:59.809Z,82.94
2023-04-10T19:40:31.171Z,83.89
2023-04-10T19:43:00.446Z,83.89
2023-04-10T19:45:29.283Z,84.32
2023-04-10T19:47:57.638Z,84.63
2023-04-10T19:50:25.418Z,84.82
2023-04-10T19:52:53.129Z,85.16
2023-04-10T19:55:21.087Z,85.19
2023-04-10T19:57:50.531Z,84.97
2023-04-10T20:00:19.049Z,85.55
2023-04-10T20:02:46.816Z,85.34
2023-04-10T20:05:14.815Z,85.25
2023-04-10T20:07:42.577Z,84.93
2023-04-10T20:10:10.757Z,85.20
2023-04-10T20:12:38.502Z,84.92
2023-04-10T20:15:09.221Z,85.08
2023-04-10T20:17:38.575Z,85.14
2023-04-10T20:20:07.354Z,84.97
2023-04-10T20:22:35.016Z,84.88
2023-04-10T20:25:02.908Z,84.93
2023-04-10T20:27:30.658Z,84.95
2023-04-10T20:29:58.337Z,85.03
2023-04-10T20:32:27.585Z,85.23
2023-04-10T20:34:55.248Z,85.74
2023-04-10T20:37:22.976Z,85.56
2023-04-10T20:39:51.830Z,85.67
2023-04-10T20:42:19.556Z,85.37
2023-04-10T20:44:47.263Z,84.86
2023-04-10T20:47:14.980Z,84.51
2023-04-10T20:49:44.184Z,84.67
2023-04-10T20:52:11.965Z,84.38
2023-04-10T20:54:39.704Z,84.38
2023-04-10T20:57:07.389Z,84.64
2023-04-10T20:59:36.008Z,84.66
2023-04-10T21:02:03.925Z,84.90
2023-04-10T21:04:32.586Z,84.05
2023-04-10T21:07:01.659Z,84.13
2023-04-10T21:09:29.462Z,84.25
2023-04-10T21:11:57.726Z,84.21
2023-04-10T21:14:25.432Z,83.48
2023-04-10T21:16:53.250Z,83.98
2023-04-10T21:19:21.032Z,83.68
2023-04-10T21:21:48.756Z,83.93
2023-04-10T21:24:17.922Z,83.45
2023-04-10T21:26:45.770Z,83.04
2023-04-10T21:29:13.646Z,83.64
2023-04-10T21:31:41.377Z,83.30
2023-04-10T21:34:09.120Z,83.31
2023-04-10T21:36:36.784Z,83.64
2023-04-10T21:39:08.892Z,83.19
2023-04-10T21:41:38.236Z,83.19
2023-04-10T21:44:06.242Z,82.89
2023-04-10T21:46:34.480Z,82.81
2023-04-10T21:49:02.424Z,82.97
2023-04-10T21:51:30.159Z,82.99
2023-04-10T21:53:57.913Z,83.23
2023-04-10T21:56:25.872Z,82.62
2023-04-10T21:58:55.227Z,82.81
2023-04-10T22:01:23.038Z,83.38
2023-04-10T22:03:50.868Z,82.67
2023-04-10T22:06:18.661Z,83.25
2023-04-10T22:08:46.900Z,82.67
2023-04-10T22:11:14.548Z,82.90
2023-04-10T22:13:42.171Z,82.39
2023-04-10T22:16:11.387Z,82.72
2023-04-10T22:18:39.155Z,82.48
2023-04-10T22:21:07.765Z,82.48
2023-04-10T22:23:35.497Z,83.40
2023-04-10T22:26:03.136Z,83.33
2023-04-10T22:28:30.826Z,83.39
2023-04-10T22:30:58.661Z,83.67
2023-04-10T22:33:28.028Z,83.62
2023-04-10T22:35:55.731Z,83.55
2023-04-10T22:38:23.530Z,83.53
2023-04-10T22:40:51.267Z,83.43
2023-04-10T22:43:19.062Z,83.40
2023-04-10T22:45:46.795Z,83.58
2023-04-10T22:48:14.513Z,83.14
2023-04-10T22:50:43.567Z,82.70
2023-04-10T22:53:12.094Z,83.07
2023-04-10T22:55:40.005Z,82.59
2023-04-10T22:58:08.089Z,82.27
2023-04-10T23:00:35.751Z,82.51
2023-04-10T23:03:03.618Z,82.24
2023-04-10T23:05:32.928Z,82.48
2023-04-10T23:08:02.153Z,82.44
2023-04-10T23:10:29.864Z,82.51
2023-04-10T23:12:57.461Z,82.31
2023-04-10T23:15:25.159Z,82.43
2023-04-10T23:17:52.892Z,82.91
2023-04-10T23:20:20.856Z,82.56
2023-04-10T23:22:48.579Z,82.23
2023-04-10T23:25:17.733Z,82.65
2023-04-10T23:27:45.476Z,82.77
2023-04-10T23:30:13.322Z,82.50
2023-04-10T23:32:41.038Z,82.33
2023-04-10T23:35:09.253Z,82.66
2023-04-10T23:37:36.987Z,82.21
2023-04-10T23:40:05.125Z,81.97
2023-04-10T23:42:34.263Z,81.99
2023-04-10T23:45:01.917Z,81.91
2023-04-10T23:47:29.701Z,81.91
2023-04-10T23:49:57.406Z,82.03
2023-04-10T23:52:25.238Z,82.17
2023-04-10T23:54:52.934Z,82.74
2023-04-10T23:57:20.703Z,81.48
2023-04-10T23:59:49.983Z,81.66
